sensor_id;sensor_type;location;lat;lon;timestamp;temperature;humidity
47546;DHT22;50104;52.002;4.688;2023-01-19T00:01:11;4.90;89.00
47546;DHT22;50104;52.002;4.688;2023-01-19T00:06:12;4.90;89.10
47546;DHT22;50104;52.002;4.688;2023-01-19T00:11:15;4.90;89.20
47546;DHT22;50104;52.002;4.688;2023-01-19T00:16:20;4.90;89.10
47546;DHT22;50104;52.002;4.688;2023-01-19T00:21:22;4.90;89.30
47546;DHT22;50104;52.002;4.688;2023-01-19T00:26:24;4.90;89.30
47546;DHT22;50104;52.002;4.688;2023-01-19T00:31:24;4.80;89.90
47546;DHT22;50104;52.002;4.688;2023-01-19T00:36:25;4.80;89.70
47546;DHT22;50104;52.002;4.688;2023-01-19T00:41:26;4.90;89.40
47546;DHT22;50104;52.002;4.688;2023-01-19T00:46:45;4.90;89.00
47546;DHT22;50104;52.002;4.688;2023-01-19T00:51:46;4.80;89.20
47546;DHT22;50104;52.002;4.688;2023-01-19T00:56:47;4.80;89.20
47546;DHT22;50104;52.002;4.688;2023-01-19T01:01:48;4.80;89.30
47546;DHT22;50104;52.002;4.688;2023-01-19T01:06:49;4.80;89.60
47546;DHT22;50104;52.002;4.688;2023-01-19T01:11:50;4.70;89.80
47546;DHT22;50104;52.002;4.688;2023-01-19T01:16:51;4.80;89.70
47546;DHT22;50104;52.002;4.688;2023-01-19T01:21:51;4.80;89.80
47546;DHT22;50104;52.002;4.688;2023-01-19T01:26:52;4.80;89.90
47546;DHT22;50104;52.002;4.688;2023-01-19T01:31:53;4.80;89.90
47546;DHT22;50104;52.002;4.688;2023-01-19T01:36:54;4.80;89.80
47546;DHT22;50104;52.002;4.688;2023-01-19T01:41:55;4.80;90.10
47546;DHT22;50104;52.002;4.688;2023-01-19T01:46:55;4.70;90.00
47546;DHT22;50104;52.002;4.688;2023-01-19T01:51:56;4.70;89.60
47546;DHT22;50104;52.002;4.688;2023-01-19T01:57:02;4.70;89.60
47546;DHT22;50104;52.002;4.688;2023-01-19T02:02:13;4.60;89.40
47546;DHT22;50104;52.002;4.688;2023-01-19T02:13:25;4.60;89.40
47546;DHT22;50104;52.002;4.688;2023-01-19T02:18:29;4.50;89.50
47546;DHT22;50104;52.002;4.688;2023-01-19T02:23:43;4.50;89.50
47546;DHT22;50104;52.002;4.688;2023-01-19T02:28:54;4.50;89.50
47546;DHT22;50104;52.002;4.688;2023-01-19T02:33:58;4.50;89.60
47546;DHT22;50104;52.002;4.688;2023-01-19T02:39:01;4.40;89.60
47546;DHT22;50104;52.002;4.688;2023-01-19T02:44:06;4.40;89.70
47546;DHT22;50104;52.002;4.688;2023-01-19T02:49:07;4.40;89.60
47546;DHT22;50104;52.002;4.688;2023-01-19T02:59:45;4.30;89.50
47546;DHT22;50104;52.002;4.688;2023-01-19T03:10:46;4.30;89.50
47546;DHT22;50104;52.002;4.688;2023-01-19T03:16:22;4.30;89.50
47546;DHT22;50104;52.002;4.688;2023-01-19T03:21:27;4.20;89.30
47546;DHT22;50104;52.002;4.688;2023-01-19T03:26:34;4.20;89.30
47546;DHT22;50104;52.002;4.688;2023-01-19T03:31:38;4.20;89.30
47546;DHT22;50104;52.002;4.688;2023-01-19T03:36:43;4.20;89.40
47546;DHT22;50104;52.002;4.688;2023-01-19T03:41:48;4.20;89.40
47546;DHT22;50104;52.002;4.688;2023-01-19T03:46:51;4.10;89.40
47546;DHT22;50104;52.002;4.688;2023-01-19T03:51:54;4.10;89.30
47546;DHT22;50104;52.002;4.688;2023-01-19T03:56:56;4.10;89.40
47546;DHT22;50104;52.002;4.688;2023-01-19T04:01:58;4.10;89.40
47546;DHT22;50104;52.002;4.688;2023-01-19T04:06:59;4.10;89.40
47546;DHT22;50104;52.002;4.688;2023-01-19T04:12:01;4.10;89.40
47546;DHT22;50104;52.002;4.688;2023-01-19T04:17:03;4.00;89.50
47546;DHT22;50104;52.002;4.688;2023-01-19T04:22:04;4.00;89.50
47546;DHT22;50104;52.002;4.688;2023-01-19T04:27:05;4.00;89.60
47546;DHT22;50104;52.002;4.688;2023-01-19T04:32:05;4.00;89.70
47546;DHT22;50104;52.002;4.688;2023-01-19T04:37:06;4.00;90.00
47546;DHT22;50104;52.002;4.688;2023-01-19T04:42:08;4.00;90.00
47546;DHT22;50104;52.002;4.688;2023-01-19T04:47:08;4.00;89.80
47546;DHT22;50104;52.002;4.688;2023-01-19T04:52:10;4.00;89.70
47546;DHT22;50104;52.002;4.688;2023-01-19T04:57:11;4.00;89.70
47546;DHT22;50104;52.002;4.688;2023-01-19T05:02:12;4.00;89.70
47546;DHT22;50104;52.002;4.688;2023-01-19T05:07:13;4.00;89.70
47546;DHT22;50104;52.002;4.688;2023-01-19T05:12:14;4.00;89.70
47546;DHT22;50104;52.002;4.688;2023-01-19T05:17:15;4.00;89.70
47546;DHT22;50104;52.002;4.688;2023-01-19T05:22:17;4.10;89.70
47546;DHT22;50104;52.002;4.688;2023-01-19T05:27:18;4.00;89.70
47546;DHT22;50104;52.002;4.688;2023-01-19T05:32:19;4.10;89.60
47546;DHT22;50104;52.002;4.688;2023-01-19T05:37:19;4.10;89.60
47546;DHT22;50104;52.002;4.688;2023-01-19T05:42:20;4.10;89.50
47546;DHT22;50104;52.002;4.688;2023-01-19T05:47:21;4.10;89.40
47546;DHT22;50104;52.002;4.688;2023-01-19T05:52:22;4.10;89.30
47546;DHT22;50104;52.002;4.688;2023-01-19T05:57:24;4.10;89.30
47546;DHT22;50104;52.002;4.688;2023-01-19T06:02:25;4.10;89.40
47546;DHT22;50104;52.002;4.688;2023-01-19T06:07:28;4.10;89.30
47546;DHT22;50104;52.002;4.688;2023-01-19T06:12:28;4.00;89.20
47546;DHT22;50104;52.002;4.688;2023-01-19T06:17:31;4.10;89.10
47546;DHT22;50104;52.002;4.688;2023-01-19T06:22:32;4.10;88.90
47546;DHT22;50104;52.002;4.688;2023-01-19T06:27:33;4.00;88.80
47546;DHT22;50104;52.002;4.688;2023-01-19T06:32:34;4.00;88.70
47546;DHT22;50104;52.002;4.688;2023-01-19T06:37:36;4.00;88.60
47546;DHT22;50104;52.002;4.688;2023-01-19T06:42:36;3.90;88.50
47546;DHT22;50104;52.002;4.688;2023-01-19T06:47:37;3.90;88.50
47546;DHT22;50104;52.002;4.688;2023-01-19T06:52:38;3.80;88.90
47546;DHT22;50104;52.002;4.688;2023-01-19T06:57:41;3.80;89.20
47546;DHT22;50104;52.002;4.688;2023-01-19T07:02:44;3.80;89.50
47546;DHT22;50104;52.002;4.688;2023-01-19T07:07:54;3.80;89.80
47546;DHT22;50104;52.002;4.688;2023-01-19T07:12:56;3.80;90.00
47546;DHT22;50104;52.002;4.688;2023-01-19T07:17:57;3.80;90.30
47546;DHT22;50104;52.002;4.688;2023-01-19T07:22:59;3.80;90.50
47546;DHT22;50104;52.002;4.688;2023-01-19T07:28:02;3.90;90.50
47546;DHT22;50104;52.002;4.688;2023-01-19T07:33:03;4.00;90.30
47546;DHT22;50104;52.002;4.688;2023-01-19T07:38:03;4.00;90.10
47546;DHT22;50104;52.002;4.688;2023-01-19T07:43:05;4.00;89.70
47546;DHT22;50104;52.002;4.688;2023-01-19T07:48:06;4.00;89.50
47546;DHT22;50104;52.002;4.688;2023-01-19T07:53:08;4.10;89.40
47546;DHT22;50104;52.002;4.688;2023-01-19T07:58:11;4.10;89.30
47546;DHT22;50104;52.002;4.688;2023-01-19T08:03:11;4.10;89.10
47546;DHT22;50104;52.002;4.688;2023-01-19T08:08:14;4.10;89.10
47546;DHT22;50104;52.002;4.688;2023-01-19T08:13:14;4.10;88.90
47546;DHT22;50104;52.002;4.688;2023-01-19T08:18:15;4.10;88.70
47546;DHT22;50104;52.002;4.688;2023-01-19T08:23:17;4.00;88.80
47546;DHT22;50104;52.002;4.688;2023-01-19T08:28:18;4.00;89.00
47546;DHT22;50104;52.002;4.688;2023-01-19T08:33:20;4.00;89.10
47546;DHT22;50104;52.002;4.688;2023-01-19T08:38:22;4.00;89.10
47546;DHT22;50104;52.002;4.688;2023-01-19T08:43:25;4.00;89.10
47546;DHT22;50104;52.002;4.688;2023-01-19T08:48:26;4.00;88.90
47546;DHT22;50104;52.002;4.688;2023-01-19T08:53:27;4.00;88.80
47546;DHT22;50104;52.002;4.688;2023-01-19T08:58:27;4.00;88.80
47546;DHT22;50104;52.002;4.688;2023-01-19T09:03:28;4.00;88.80
47546;DHT22;50104;52.002;4.688;2023-01-19T09:08:29;4.00;88.80
47546;DHT22;50104;52.002;4.688;2023-01-19T09:13:30;4.00;89.00
47546;DHT22;50104;52.002;4.688;2023-01-19T09:18:31;4.00;89.00
47546;DHT22;50104;52.002;4.688;2023-01-19T09:23:32;4.00;89.00
47546;DHT22;50104;52.002;4.688;2023-01-19T09:28:33;4.10;89.20
47546;DHT22;50104;52.002;4.688;2023-01-19T09:33:34;4.10;89.30
47546;DHT22;50104;52.002;4.688;2023-01-19T09:38:35;4.20;89.40
47546;DHT22;50104;52.002;4.688;2023-01-19T09:43:42;4.20;89.60
47546;DHT22;50104;52.002;4.688;2023-01-19T09:48:50;4.30;89.70
47546;DHT22;50104;52.002;4.688;2023-01-19T09:59:32;4.50;89.90
47546;DHT22;50104;52.002;4.688;2023-01-19T10:04:42;4.60;89.90
47546;DHT22;50104;52.002;4.688;2023-01-19T10:20:32;4.90;89.70
47546;DHT22;50104;52.002;4.688;2023-01-19T10:25:38;4.90;89.50
47546;DHT22;50104;52.002;4.688;2023-01-19T10:30:41;5.00;89.30
47546;DHT22;50104;52.002;4.688;2023-01-19T10:35:44;5.10;89.20
47546;DHT22;50104;52.002;4.688;2023-01-19T10:40:56;5.20;89.30
47546;DHT22;50104;52.002;4.688;2023-01-19T10:46:00;5.30;89.30
47546;DHT22;50104;52.002;4.688;2023-01-19T10:51:04;5.40;89.30
47546;DHT22;50104;52.002;4.688;2023-01-19T10:56:21;5.50;88.90
47546;DHT22;50104;52.002;4.688;2023-01-19T11:01:26;5.60;88.50
47546;DHT22;50104;52.002;4.688;2023-01-19T11:06:29;5.70;88.20
47546;DHT22;50104;52.002;4.688;2023-01-19T11:11:41;5.70;87.60
47546;DHT22;50104;52.002;4.688;2023-01-19T11:16:54;5.80;87.30
47546;DHT22;50104;52.002;4.688;2023-01-19T11:22:17;5.80;87.10
47546;DHT22;50104;52.002;4.688;2023-01-19T11:27:22;5.90;87.20
47546;DHT22;50104;52.002;4.688;2023-01-19T11:32:26;5.90;87.10
47546;DHT22;50104;52.002;4.688;2023-01-19T11:37:30;5.90;87.30
47546;DHT22;50104;52.002;4.688;2023-01-19T11:42:32;6.00;87.20
47546;DHT22;50104;52.002;4.688;2023-01-19T11:47:44;6.10;86.80
47546;DHT22;50104;52.002;4.688;2023-01-19T11:53:17;6.10;86.10
47546;DHT22;50104;52.002;4.688;2023-01-19T11:58:24;6.10;85.80
47546;DHT22;50104;52.002;4.688;2023-01-19T12:03:33;6.10;84.60
47546;DHT22;50104;52.002;4.688;2023-01-19T12:08:46;6.10;85.20
47546;DHT22;50104;52.002;4.688;2023-01-19T12:13:51;6.10;85.20
47546;DHT22;50104;52.002;4.688;2023-01-19T12:24:19;6.20;86.00
47546;DHT22;50104;52.002;4.688;2023-01-19T12:29:27;6.30;86.60
47546;DHT22;50104;52.002;4.688;2023-01-19T12:34:45;6.50;87.00
47546;DHT22;50104;52.002;4.688;2023-01-19T12:39:49;6.70;86.90
47546;DHT22;50104;52.002;4.688;2023-01-19T12:45:05;6.90;86.60
47546;DHT22;50104;52.002;4.688;2023-01-19T12:50:16;7.00;85.90
47546;DHT22;50104;52.002;4.688;2023-01-19T12:55:35;7.20;84.90
47546;DHT22;50104;52.002;4.688;2023-01-19T13:00:42;7.30;84.20
47546;DHT22;50104;52.002;4.688;2023-01-19T13:21:29;7.00;81.40
47546;DHT22;50104;52.002;4.688;2023-01-19T13:26:36;6.90;82.20
47546;DHT22;50104;52.002;4.688;2023-01-19T13:31:42;6.80;83.30
47546;DHT22;50104;52.002;4.688;2023-01-19T13:36:53;6.80;84.80
47546;DHT22;50104;52.002;4.688;2023-01-19T13:41:59;6.90;86.00
47546;DHT22;50104;52.002;4.688;2023-01-19T13:47:12;7.10;85.40
47546;DHT22;50104;52.002;4.688;2023-01-19T13:52:21;7.30;84.00
47546;DHT22;50104;52.002;4.688;2023-01-19T14:02:34;7.30;82.20
47546;DHT22;50104;52.002;4.688;2023-01-19T14:07:35;7.30;81.90
47546;DHT22;50104;52.002;4.688;2023-01-19T14:12:37;7.20;81.70
47546;DHT22;50104;52.002;4.688;2023-01-19T14:17:38;7.10;81.90
47546;DHT22;50104;52.002;4.688;2023-01-19T14:22:43;7.10;81.60
47546;DHT22;50104;52.002;4.688;2023-01-19T14:27:44;7.00;81.90
47546;DHT22;50104;52.002;4.688;2023-01-19T14:32:45;7.00;82.10
47546;DHT22;50104;52.002;4.688;2023-01-19T14:37:48;6.90;82.40
47546;DHT22;50104;52.002;4.688;2023-01-19T14:42:53;6.80;82.20
47546;DHT22;50104;52.002;4.688;2023-01-19T14:48:03;6.80;81.80
47546;DHT22;50104;52.002;4.688;2023-01-19T14:58:23;6.60;81.90
47546;DHT22;50104;52.002;4.688;2023-01-19T15:03:25;6.60;81.60
47546;DHT22;50104;52.002;4.688;2023-01-19T15:08:33;6.50;81.80
47546;DHT22;50104;52.002;4.688;2023-01-19T15:13:36;6.40;82.00
47546;DHT22;50104;52.002;4.688;2023-01-19T15:18:38;6.30;82.00
47546;DHT22;50104;52.002;4.688;2023-01-19T15:23:40;6.30;82.00
47546;DHT22;50104;52.002;4.688;2023-01-19T15:28:41;6.20;82.00
47546;DHT22;50104;52.002;4.688;2023-01-19T15:33:43;6.10;81.10
47546;DHT22;50104;52.002;4.688;2023-01-19T15:38:44;6.00;81.10
47546;DHT22;50104;52.002;4.688;2023-01-19T15:43:45;5.90;80.80
47546;DHT22;50104;52.002;4.688;2023-01-19T15:48:48;5.80;80.70
47546;DHT22;50104;52.002;4.688;2023-01-19T15:53:50;5.70;80.80
47546;DHT22;50104;52.002;4.688;2023-01-19T15:58:52;5.60;81.10
47546;DHT22;50104;52.002;4.688;2023-01-19T16:03:53;5.40;81.30
47546;DHT22;50104;52.002;4.688;2023-01-19T16:08:55;5.30;81.30
47546;DHT22;50104;52.002;4.688;2023-01-19T16:13:59;5.20;81.50
47546;DHT22;50104;52.002;4.688;2023-01-19T16:19:01;5.10;81.70
47546;DHT22;50104;52.002;4.688;2023-01-19T16:24:02;5.00;81.90
47546;DHT22;50104;52.002;4.688;2023-01-19T16:29:05;4.90;81.90
47546;DHT22;50104;52.002;4.688;2023-01-19T16:34:09;4.80;82.00
47546;DHT22;50104;52.002;4.688;2023-01-19T16:39:12;4.70;82.20
47546;DHT22;50104;52.002;4.688;2023-01-19T16:44:14;4.60;82.50
47546;DHT22;50104;52.002;4.688;2023-01-19T16:49:21;4.50;82.40
47546;DHT22;50104;52.002;4.688;2023-01-19T16:54:25;4.40;82.50
47546;DHT22;50104;52.002;4.688;2023-01-19T16:59:28;4.30;82.50
47546;DHT22;50104;52.002;4.688;2023-01-19T17:04:29;4.30;82.80
47546;DHT22;50104;52.002;4.688;2023-01-19T17:09:29;4.20;83.00
47546;DHT22;50104;52.002;4.688;2023-01-19T17:14:31;4.10;83.10
47546;DHT22;50104;52.002;4.688;2023-01-19T17:19:32;3.90;83.90
47546;DHT22;50104;52.002;4.688;2023-01-19T17:24:33;3.90;84.70
47546;DHT22;50104;52.002;4.688;2023-01-19T17:29:34;3.90;85.20
47546;DHT22;50104;52.002;4.688;2023-01-19T17:34:35;3.90;85.30
47546;DHT22;50104;52.002;4.688;2023-01-19T17:39:36;3.90;85.30
47546;DHT22;50104;52.002;4.688;2023-01-19T17:44:37;3.90;85.20
47546;DHT22;50104;52.002;4.688;2023-01-19T17:49:37;3.90;85.10
47546;DHT22;50104;52.002;4.688;2023-01-19T17:54:38;3.80;85.10
47546;DHT22;50104;52.002;4.688;2023-01-19T17:59:39;3.80;85.10
47546;DHT22;50104;52.002;4.688;2023-01-19T18:04:43;3.80;85.20
47546;DHT22;50104;52.002;4.688;2023-01-19T18:09:44;3.80;85.30
47546;DHT22;50104;52.002;4.688;2023-01-19T18:14:44;3.80;85.40
47546;DHT22;50104;52.002;4.688;2023-01-19T18:19:45;3.70;85.50
47546;DHT22;50104;52.002;4.688;2023-01-19T18:24:46;3.70;85.80
47546;DHT22;50104;52.002;4.688;2023-01-19T18:29:48;3.70;86.10
47546;DHT22;50104;52.002;4.688;2023-01-19T18:34:49;3.70;86.30
47546;DHT22;50104;52.002;4.688;2023-01-19T18:39:53;3.70;86.10
47546;DHT22;50104;52.002;4.688;2023-01-19T18:44:55;3.70;85.90
47546;DHT22;50104;52.002;4.688;2023-01-19T18:49:56;3.70;85.80
47546;DHT22;50104;52.002;4.688;2023-01-19T18:54:58;3.70;85.80
47546;DHT22;50104;52.002;4.688;2023-01-19T18:59:59;3.70;85.40
47546;DHT22;50104;52.002;4.688;2023-01-19T19:05:00;3.70;85.20
47546;DHT22;50104;52.002;4.688;2023-01-19T19:10:00;3.70;85.20
47546;DHT22;50104;52.002;4.688;2023-01-19T19:15:02;3.70;85.20
47546;DHT22;50104;52.002;4.688;2023-01-19T19:20:03;3.60;85.60
47546;DHT22;50104;52.002;4.688;2023-01-19T19:25:04;3.60;85.50
47546;DHT22;50104;52.002;4.688;2023-01-19T19:30:06;3.60;85.50
47546;DHT22;50104;52.002;4.688;2023-01-19T19:35:08;3.60;85.60
47546;DHT22;50104;52.002;4.688;2023-01-19T19:40:11;3.50;86.30
47546;DHT22;50104;52.002;4.688;2023-01-19T19:45:12;3.50;86.30
47546;DHT22;50104;52.002;4.688;2023-01-19T19:50:14;3.50;86.10
47546;DHT22;50104;52.002;4.688;2023-01-19T19:55:15;3.50;86.00
47546;DHT22;50104;52.002;4.688;2023-01-19T20:00:16;3.50;85.60
47546;DHT22;50104;52.002;4.688;2023-01-19T20:05:17;3.50;85.70
47546;DHT22;50104;52.002;4.688;2023-01-19T20:10:18;3.50;86.00
47546;DHT22;50104;52.002;4.688;2023-01-19T20:15:20;3.40;86.10
47546;DHT22;50104;52.002;4.688;2023-01-19T20:20:22;3.40;85.90
47546;DHT22;50104;52.002;4.688;2023-01-19T20:25:24;3.30;86.00
47546;DHT22;50104;52.002;4.688;2023-01-19T20:30:25;3.30;86.10
47546;DHT22;50104;52.002;4.688;2023-01-19T20:35:26;3.20;86.20
47546;DHT22;50104;52.002;4.688;2023-01-19T20:40:27;3.20;86.40
47546;DHT22;50104;52.002;4.688;2023-01-19T20:45:28;3.20;86.70
47546;DHT22;50104;52.002;4.688;2023-01-19T20:50:29;3.20;86.70
47546;DHT22;50104;52.002;4.688;2023-01-19T20:55:30;3.10;86.90
47546;DHT22;50104;52.002;4.688;2023-01-19T21:00:31;3.10;86.80
47546;DHT22;50104;52.002;4.688;2023-01-19T21:05:33;3.10;87.30
47546;DHT22;50104;52.002;4.688;2023-01-19T21:10:49;3.10;87.30
47546;DHT22;50104;52.002;4.688;2023-01-19T21:15:50;3.00;87.40
47546;DHT22;50104;52.002;4.688;2023-01-19T21:20:51;3.00;87.70
47546;DHT22;50104;52.002;4.688;2023-01-19T21:25:56;2.90;88.00
47546;DHT22;50104;52.002;4.688;2023-01-19T21:31:05;2.90;88.40
47546;DHT22;50104;52.002;4.688;2023-01-19T21:36:09;2.80;88.50
47546;DHT22;50104;52.002;4.688;2023-01-19T21:41:10;2.80;88.80
47546;DHT22;50104;52.002;4.688;2023-01-19T21:46:21;2.70;89.10
47546;DHT22;50104;52.002;4.688;2023-01-19T21:51:29;2.70;89.30
47546;DHT22;50104;52.002;4.688;2023-01-19T21:56:33;2.70;89.40
47546;DHT22;50104;52.002;4.688;2023-01-19T22:01:35;2.70;89.50
47546;DHT22;50104;52.002;4.688;2023-01-19T22:06:36;2.70;89.60
47546;DHT22;50104;52.002;4.688;2023-01-19T22:11:37;2.70;89.60
47546;DHT22;50104;52.002;4.688;2023-01-19T22:16:38;2.70;89.70
47546;DHT22;50104;52.002;4.688;2023-01-19T22:21:39;2.70;89.70
47546;DHT22;50104;52.002;4.688;2023-01-19T22:26:40;2.70;89.50
47546;DHT22;50104;52.002;4.688;2023-01-19T22:31:41;2.70;89.50
47546;DHT22;50104;52.002;4.688;2023-01-19T22:36:42;2.60;89.20
47546;DHT22;50104;52.002;4.688;2023-01-19T22:41:45;2.60;88.80
47546;DHT22;50104;52.002;4.688;2023-01-19T22:46:49;2.60;88.50
47546;DHT22;50104;52.002;4.688;2023-01-19T22:51:50;2.50;88.30
47546;DHT22;50104;52.002;4.688;2023-01-19T22:56:53;2.50;87.60
47546;DHT22;50104;52.002;4.688;2023-01-19T23:01:54;2.40;87.20
47546;DHT22;50104;52.002;4.688;2023-01-19T23:06:55;2.30;87.70
47546;DHT22;50104;52.002;4.688;2023-01-19T23:11:55;2.30;87.60
47546;DHT22;50104;52.002;4.688;2023-01-19T23:16:57;2.20;88.30
47546;DHT22;50104;52.002;4.688;2023-01-19T23:21:58;2.20;88.50
47546;DHT22;50104;52.002;4.688;2023-01-19T23:26:59;2.20;88.90
47546;DHT22;50104;52.002;4.688;2023-01-19T23:32:03;2.20;88.50
47546;DHT22;50104;52.002;4.688;2023-01-19T23:37:04;2.10;88.90
47546;DHT22;50104;52.002;4.688;2023-01-19T23:42:05;2.10;88.70
47546;DHT22;50104;52.002;4.688;2023-01-19T23:47:07;2.10;88.70
47546;DHT22;50104;52.002;4.688;2023-01-19T23:52:08;2.10;88.20
47546;DHT22;50104;52.002;4.688;2023-01-19T23:57:09;2.00;88.00
